Time;durP1;ratioP1;P1;durP2;ratioP2;P2;SDS_P1;SDS_P2;PMS_P1;PMS_P2;Temp;Humidity;BMP_temperature;BMP_pressure;BME280_temperature;BME280_humidity;BME280_pressure;Samples;Min_cycle;Max_cycle;Signal;HPM_P1;HPM_P2
2021/11/29 00:00:39;;;;;;;38.90;16.83;;;3.50;99.90;;;1.02;100.00;99147.53;5023448;28;20049;-83
2021/11/29 00:03:32;;;;;;;32.90;14.48;;;3.60;99.90;;;0.99;100.00;99146.00;5024864;28;20057;-83
2021/11/29 00:05:59;;;;;;;27.85;13.63;;;3.50;99.90;;;1.00;100.00;99160.25;5009373;28;20072;-83
2021/11/29 00:08:27;;;;;;;27.10;13.82;;;3.50;99.90;;;0.93;100.00;99157.34;5010043;28;20147;-82
2021/11/29 00:10:54;;;;;;;31.52;13.77;;;3.50;99.90;;;0.90;100.00;99160.34;5010216;28;20048;-83
2021/11/29 00:13:22;;;;;;;34.90;14.63;;;3.50;99.90;;;0.84;100.00;99158.25;5024152;28;20087;-83
2021/11/29 00:15:49;;;;;;;24.33;11.80;;;3.50;99.90;;;0.81;100.00;99163.94;5028032;28;20069;-83
2021/11/29 00:18:17;;;;;;;27.60;12.35;;;3.40;99.90;;;0.82;100.00;99170.97;5021388;28;20056;-83
2021/11/29 00:20:46;;;;;;;24.63;10.77;;;3.40;99.90;;;0.79;100.00;99174.81;5029899;28;20041;-83
2021/11/29 00:23:14;;;;;;;24.95;11.13;;;3.40;99.90;;;0.76;100.00;99177.78;5028300;28;20562;-83
2021/11/29 00:25:44;;;;;;;21.88;11.40;;;3.40;99.90;;;0.75;100.00;99178.78;5029175;28;20060;-83
2021/11/29 00:28:11;;;;;;;24.42;10.32;;;3.30;99.90;;;0.72;100.00;99185.31;5029533;28;20065;-83
2021/11/29 00:30:39;;;;;;;23.50;11.07;;;3.30;99.90;;;0.79;100.00;99180.16;5029220;28;20050;-83
2021/11/29 00:33:08;;;;;;;23.55;10.95;;;3.30;99.90;;;0.79;100.00;99177.50;5026488;28;20072;-83
2021/11/29 00:35:35;;;;;;;19.40;10.35;;;3.30;99.90;;;0.76;100.00;99184.00;5028353;28;20765;-83
2021/11/29 00:38:04;;;;;;;20.60;10.35;;;3.30;99.90;;;0.77;100.00;99185.66;5012127;28;20140;-83
2021/11/29 00:40:32;;;;;;;23.90;10.10;;;3.30;99.90;;;0.72;100.00;99185.31;5009563;28;20504;-83
2021/11/29 00:42:59;;;;;;;21.67;10.40;;;3.30;99.90;;;0.75;100.00;99190.34;5029291;28;20126;-82
2021/11/29 00:45:27;;;;;;;21.15;9.55;;;3.30;99.90;;;0.76;100.00;99188.50;5028620;28;20128;-82
2021/11/29 00:47:54;;;;;;;23.02;10.88;;;3.30;99.90;;;0.78;100.00;99197.22;5029162;28;20041;-83
2021/11/29 00:50:22;;;;;;;21.73;10.05;;;3.30;99.90;;;0.77;100.00;99193.69;5027606;28;20072;-82
2021/11/29 00:52:49;;;;;;;20.00;9.80;;;3.30;99.90;;;0.78;100.00;99200.75;5028063;28;20065;-83
2021/11/29 00:55:19;;;;;;;19.35;9.32;;;3.30;99.90;;;0.72;100.00;99201.38;5014779;28;20085;-82
2021/11/29 00:57:47;;;;;;;18.83;9.93;;;3.30;99.90;;;0.73;100.00;99199.53;5009664;28;20049;-83
2021/11/29 01:00:19;;;;;;;19.30;9.38;;;3.30;99.90;;;0.68;100.00;99199.97;5009483;28;20034;-83
2021/11/29 01:02:47;;;;;;;19.60;9.25;;;3.30;99.90;;;0.72;100.00;99206.75;5009308;28;20050;-82
2021/11/29 01:05:15;;;;;;;19.80;9.50;;;3.30;99.90;;;0.67;100.00;99198.31;5009028;28;20042;-82
2021/11/29 01:07:42;;;;;;;22.60;9.82;;;3.20;99.90;;;0.74;100.00;99214.59;5009056;28;20502;-83
2021/11/29 01:10:12;;;;;;;20.92;9.60;;;3.20;99.90;;;0.80;100.00;99210.44;5022056;28;20489;-83
2021/11/29 01:12:42;;;;;;;19.25;9.05;;;3.20;99.90;;;0.80;100.00;99216.69;5011966;28;20132;-83
2021/11/29 01:15:15;;;;;;;21.67;8.40;;;3.20;99.90;;;0.69;100.00;99207.03;5008537;28;20042;-82
2021/11/29 01:17:42;;;;;;;25.40;8.50;;;3.20;99.90;;;0.68;100.00;99216.03;5008994;28;20045;-82
2021/11/29 01:20:11;;;;;;;22.27;9.00;;;3.10;99.90;;;0.68;100.00;99220.56;5007677;28;20061;-82
2021/11/29 01:22:39;;;;;;;29.35;8.93;;;3.20;99.90;;;0.63;100.00;99226.38;5008908;28;20130;-83
2021/11/29 01:25:08;;;;;;;23.65;9.10;;;3.20;99.90;;;0.63;100.00;99221.03;5008707;28;20683;-83
2021/11/29 01:27:36;;;;;;;24.60;8.52;;;3.10;99.90;;;0.67;100.00;99225.09;5009159;28;20038;-83
2021/11/29 01:30:07;;;;;;;20.65;8.55;;;3.10;99.90;;;0.56;100.00;99217.28;5008849;28;20585;-82
2021/11/29 01:32:35;;;;;;;21.67;9.13;;;3.10;99.90;;;0.56;100.00;99225.31;5008795;28;20058;-83
2021/11/29 01:35:04;;;;;;;20.98;8.60;;;3.10;99.90;;;0.53;100.00;99221.13;5026058;28;20049;-82
2021/11/29 01:37:31;;;;;;;18.58;8.70;;;3.10;99.90;;;0.54;100.00;99224.63;5032225;28;20060;-82
2021/11/29 01:39:58;;;;;;;21.67;8.70;;;3.10;99.90;;;0.50;100.00;99224.09;5032792;28;20464;-82
2021/11/29 01:42:25;;;;;;;22.23;8.23;;;3.00;99.90;;;0.51;100.00;99230.28;5031221;28;20504;-83
2021/11/29 01:44:53;;;;;;;21.38;8.60;;;3.00;99.90;;;0.49;100.00;99232.25;5021591;28;20052;-82
2021/11/29 01:47:23;;;;;;;16.63;7.90;;;3.00;99.90;;;0.44;100.00;99234.53;5012869;28;20121;-83
2021/11/29 01:49:51;;;;;;;15.13;8.35;;;3.00;99.90;;;0.47;100.00;99244.94;5012890;28;20073;-83
2021/11/29 01:52:19;;;;;;;18.05;8.10;;;3.00;99.90;;;0.45;100.00;99241.59;5012665;28;20060;-83
2021/11/29 01:54:47;;;;;;;15.98;8.15;;;3.00;99.90;;;0.43;100.00;99243.56;5012399;28;20046;-83
2021/11/29 01:57:15;;;;;;;24.42;8.32;;;3.00;99.90;;;0.42;100.00;99256.13;5012675;28;20073;-83
2021/11/29 01:59:43;;;;;;;11.90;7.35;;;3.00;99.90;;;0.43;100.00;99262.31;5025276;28;20457;-82
2021/11/29 02:02:12;;;;;;;21.23;8.60;;;2.90;99.90;;;0.43;100.00;99265.00;5030309;28;20049;-83
2021/11/29 02:04:43;;;;;;;15.63;8.02;;;2.90;99.90;;;0.37;100.00;99250.38;5032020;28;20127;-82
2021/11/29 02:07:11;;;;;;;14.90;8.25;;;2.90;99.90;;;0.33;100.00;99259.69;5031071;28;20502;-82
2021/11/29 02:09:38;;;;;;;14.85;7.80;;;2.90;99.90;;;0.30;100.00;99254.63;5032177;28;20041;-83
2021/11/29 02:12:07;;;;;;;15.38;7.72;;;2.90;99.90;;;0.37;100.00;99251.19;5031932;28;20128;-82
2021/11/29 02:14:35;;;;;;;17.95;7.82;;;2.90;99.90;;;0.36;100.00;99246.88;5030789;28;20119;-82
2021/11/29 02:17:02;;;;;;;13.48;7.10;;;2.90;99.90;;;0.34;100.00;99256.88;5025930;28;20045;-82
2021/11/29 02:19:30;;;;;;;22.00;7.80;;;2.80;99.90;;;0.33;100.00;99252.50;5010652;28;20038;-82
2021/11/29 02:21:59;;;;;;;21.77;8.52;;;2.80;99.90;;;0.29;100.00;99259.16;5011857;28;20125;-82
2021/11/29 02:24:26;;;;;;;20.25;7.85;;;2.80;99.90;;;0.28;100.00;99261.97;5011688;28;20073;-82
2021/11/29 02:26:53;;;;;;;18.17;7.65;;;2.80;99.90;;;0.27;100.00;99255.78;5010291;28;20602;-83
2021/11/29 02:29:20;;;;;;;17.85;7.40;;;2.90;99.90;;;0.28;100.00;99267.31;5014261;28;20534;-82
2021/11/29 02:31:49;;;;;;;20.15;7.65;;;2.80;99.90;;;0.27;100.00;99271.00;5011591;28;20054;-82
2021/11/29 02:34:20;;;;;;;15.07;7.85;;;2.80;99.90;;;0.23;100.00;99270.47;5022840;28;20041;-82
2021/11/29 02:36:49;;;;;;;21.88;7.72;;;2.80;99.90;;;0.26;100.00;99259.44;5031619;28;20053;-82
2021/11/29 02:39:18;;;;;;;15.90;7.40;;;2.80;99.90;;;0.29;100.00;99272.53;5013490;28;20044;-82
2021/11/29 02:41:48;;;;;;;19.88;7.60;;;2.80;99.90;;;0.34;100.00;99264.91;5021070;28;20164;-82
2021/11/29 02:44:17;;;;;;;22.92;7.72;;;2.80;99.90;;;0.49;100.00;99264.38;5018819;28;20417;-83
2021/11/29 02:46:45;;;;;;;19.58;7.60;;;2.80;99.90;;;0.59;100.00;99262.47;5021656;28;20125;-83
2021/11/29 02:49:14;;;;;;;17.80;7.38;;;2.80;99.90;;;0.63;100.00;99261.19;5011229;28;20049;-82
2021/11/29 02:51:45;;;;;;;15.70;7.65;;;2.90;99.90;;;0.69;100.00;99260.56;5011317;28;20042;-83
2021/11/29 02:54:15;;;;;;;21.55;8.05;;;2.90;99.90;;;0.73;100.00;99261.13;5011032;28;20054;-82
2021/11/29 02:56:47;;;;;;;13.82;7.53;;;2.90;99.90;;;0.76;100.00;99258.13;5010005;28;20191;-83
2021/11/29 02:59:18;;;;;;;15.43;7.20;;;2.90;99.90;;;0.80;100.00;99266.69;5009445;28;20485;-82
2021/11/29 03:01:48;;;;;;;16.87;7.93;;;3.00;99.90;;;0.81;100.00;99263.03;5028579;28;20049;-82
2021/11/29 03:04:18;;;;;;;17.27;7.35;;;3.00;99.90;;;0.78;100.00;99266.84;5009599;28;20676;-82
2021/11/29 03:06:45;;;;;;;17.50;6.93;;;3.00;99.90;;;0.77;100.00;99267.84;5016854;28;20069;-83
2021/11/29 03:09:13;;;;;;;17.90;7.07;;;3.10;99.90;;;0.75;100.00;99268.00;5030819;28;20077;-82
2021/11/29 03:11:40;;;;;;;13.20;6.95;;;3.00;99.90;;;0.64;100.00;99273.56;5030673;28;20033;-82
2021/11/29 03:14:09;;;;;;;13.27;6.63;;;3.00;99.90;;;0.56;100.00;99277.00;5030529;28;20049;-83
2021/11/29 03:16:37;;;;;;;14.90;6.63;;;3.00;99.90;;;0.52;100.00;99278.31;5030384;28;20091;-83
2021/11/29 03:19:04;;;;;;;16.67;6.75;;;3.00;99.90;;;0.42;100.00;99280.22;5024504;28;20057;-82
2021/11/29 03:21:33;;;;;;;14.20;6.45;;;2.90;99.90;;;0.40;100.00;99276.84;5026427;28;20042;-83
2021/11/29 03:24:04;;;;;;;14.20;6.97;;;2.90;99.90;;;0.35;100.00;99279.94;5030474;28;20045;-82
2021/11/29 03:26:33;;;;;;;12.93;7.10;;;2.90;99.90;;;0.26;100.00;99275.50;5030302;28;20088;-82
2021/11/29 03:29:05;;;;;;;11.48;5.82;;;2.80;99.90;;;0.27;100.00;99276.34;5030552;28;20041;-82
2021/11/29 03:31:34;;;;;;;12.85;6.57;;;2.80;99.90;;;0.26;100.00;99288.88;5029981;28;20138;-82
2021/11/29 03:34:03;;;;;;;17.95;6.90;;;2.80;99.90;;;0.28;100.00;99286.88;5020940;28;20042;-83
2021/11/29 03:36:33;;;;;;;14.35;6.70;;;2.80;99.90;;;0.34;100.00;99280.09;5019609;28;20120;-82
2021/11/29 03:39:04;;;;;;;11.93;6.45;;;2.80;99.90;;;0.37;100.00;99285.16;5018780;28;20457;-82
2021/11/29 03:41:31;;;;;;;13.13;6.38;;;2.80;99.90;;;0.42;100.00;99285.56;5018857;28;20077;-83
2021/11/29 03:43:59;;;;;;;16.73;6.68;;;2.80;99.90;;;0.45;100.00;99287.09;5029999;28;20053;-82
2021/11/29 03:46:26;;;;;;;9.80;6.35;;;2.80;99.90;;;0.48;100.00;99300.19;5029791;28;20047;-83
2021/11/29 03:48:54;;;;;;;12.23;6.18;;;2.80;99.90;;;0.54;100.00;99302.25;5030153;28;20129;-82
2021/11/29 03:51:22;;;;;;;14.68;6.65;;;2.80;99.90;;;0.53;100.00;99297.88;5029922;28;20033;-82
2021/11/29 03:53:49;;;;;;;12.93;6.05;;;2.90;99.90;;;0.61;100.00;99305.16;5028347;28;20069;-82
2021/11/29 03:56:16;;;;;;;9.20;5.60;;;2.80;99.90;;;0.65;100.00;99307.41;5015852;28;20042;-82
2021/11/29 03:58:44;;;;;;;13.05;6.60;;;2.80;99.90;;;0.70;100.00;99306.94;5009446;28;20046;-82
2021/11/29 04:01:11;;;;;;;10.07;5.63;;;2.90;99.90;;;0.74;100.00;99311.84;5009721;28;20125;-83
2021/11/29 04:03:39;;;;;;;11.27;5.60;;;2.90;99.90;;;0.75;100.00;99307.31;5019738;28;20132;-82
2021/11/29 04:06:08;;;;;;;9.90;5.10;;;2.90;99.90;;;0.73;100.00;99304.78;5017149;28;20041;-83
2021/11/29 04:08:36;;;;;;;12.02;5.72;;;3.00;99.90;;;0.76;100.00;99309.00;5010008;28;20046;-83
2021/11/29 04:11:03;;;;;;;11.30;5.78;;;3.00;99.90;;;0.77;100.00;99311.53;5009545;28;20124;-82
2021/11/29 04:13:31;;;;;;;10.48;4.80;;;3.00;99.90;;;0.71;100.00;99314.81;5008295;28;20526;-83
2021/11/29 04:15:58;;;;;;;10.88;5.00;;;3.00;99.90;;;0.64;100.00;99312.91;5008999;28;20054;-83
2021/11/29 04:18:25;;;;;;;12.15;6.00;;;3.00;99.90;;;0.58;100.00;99315.16;5009747;28;20046;-82
2021/11/29 04:20:53;;;;;;;13.60;5.05;;;3.00;99.90;;;0.57;100.00;99328.69;5001806;28;20100;-83
2021/11/29 04:23:21;;;;;;;11.65;5.07;;;3.00;99.90;;;0.53;100.00;99332.69;5015381;28;20144;-82
2021/11/29 04:25:52;;;;;;;10.20;4.68;;;3.00;99.90;;;0.47;100.00;99319.91;5009421;28;20077;-82
2021/11/29 04:28:19;;;;;;;11.43;5.10;;;3.00;99.90;;;0.51;100.00;99326.63;5009584;28;20045;-82
2021/11/29 04:30:47;;;;;;;8.05;4.85;;;3.00;99.90;;;0.51;100.00;99331.97;5007914;28;20038;-82
2021/11/29 04:33:15;;;;;;;11.38;5.00;;;3.00;99.90;;;0.45;100.00;99332.59;5011673;28;20084;-83
2021/11/29 04:35:42;;;;;;;12.45;4.63;;;3.00;99.90;;;0.50;100.00;99333.00;5018070;28;20131;-82
2021/11/29 04:38:09;;;;;;;15.38;5.25;;;2.90;99.90;;;0.44;100.00;99336.25;5020736;28;20053;-83
2021/11/29 04:40:38;;;;;;;11.07;4.85;;;2.90;99.90;;;0.48;100.00;99341.16;5027998;28;20092;-83
2021/11/29 04:43:06;;;;;;;10.90;4.80;;;2.90;99.90;;;0.50;100.00;99346.38;5009490;28;20417;-82
2021/11/29 04:45:33;;;;;;;9.13;5.03;;;2.90;99.90;;;0.50;100.00;99346.38;5008854;28;20152;-82
2021/11/29 04:48:01;;;;;;;11.23;4.95;;;3.00;99.90;;;0.52;100.00;99347.06;5009331;28;20112;-82
2021/11/29 04:50:28;;;;;;;10.18;5.32;;;2.90;99.90;;;0.60;100.00;99349.81;5009032;28;20042;-83
2021/11/29 04:52:55;;;;;;;9.57;4.65;;;2.90;99.90;;;0.61;100.00;99348.84;5009378;28;20077;-83
2021/11/29 04:55:23;;;;;;;12.05;5.30;;;3.00;99.90;;;0.66;100.00;99351.91;5008925;28;20117;-83
2021/11/29 04:57:51;;;;;;;13.45;5.18;;;2.90;99.90;;;0.73;100.00;99347.63;5009126;28;20057;-82
2021/11/29 05:00:20;;;;;;;11.10;5.15;;;3.00;99.90;;;0.77;100.00;99346.34;5008898;28;20048;-82
2021/11/29 05:02:49;;;;;;;11.45;5.28;;;3.00;99.90;;;0.74;100.00;99341.31;5016341;28;20128;-85
2021/11/29 05:05:17;;;;;;;9.93;4.82;;;3.00;99.90;;;0.78;100.00;99344.50;5020137;28;20043;-84
2021/11/29 05:07:45;;;;;;;9.88;4.75;;;3.00;99.90;;;0.84;100.00;99348.41;5028760;28;20418;-83
2021/11/29 05:10:13;;;;;;;12.73;5.25;;;3.00;99.90;;;0.83;100.00;99346.75;5028317;28;20497;-84
2021/11/29 05:12:40;;;;;;;10.05;4.78;;;3.10;99.90;;;0.81;100.00;99343.38;5028091;28;20107;-83
2021/11/29 05:15:11;;;;;;;13.65;5.25;;;3.00;99.90;;;0.84;100.00;99349.28;5027840;28;20725;-83
2021/11/29 05:17:39;;;;;;;11.32;5.72;;;3.10;99.90;;;0.83;100.00;99349.41;5008979;28;20122;-83
2021/11/29 05:20:08;;;;;;;10.57;4.50;;;3.10;99.90;;;0.91;100.00;99354.84;5020980;28;20477;-83
2021/11/29 05:22:36;;;;;;;11.10;4.57;;;3.10;99.90;;;0.90;100.00;99366.56;5012291;28;20052;-82
2021/11/29 05:25:04;;;;;;;9.52;4.68;;;3.10;99.90;;;0.94;100.00;99362.59;5008398;28;20050;-83
2021/11/29 05:27:31;;;;;;;9.77;4.43;;;3.10;99.90;;;0.93;100.00;99374.28;5008631;28;20042;-83
2021/11/29 05:29:58;;;;;;;12.15;4.90;;;3.10;99.90;;;0.96;100.00;99369.47;5008493;28;20077;-84
2021/11/29 05:32:27;;;;;;;10.32;4.68;;;3.20;99.90;;;1.00;100.00;99386.09;5008457;28;20065;-82
2021/11/29 05:34:54;;;;;;;10.88;4.45;;;3.20;99.90;;;1.00;100.00;99387.94;5024555;28;20077;-83
2021/11/29 05:37:23;;;;;;;9.90;4.63;;;3.20;99.90;;;1.03;100.00;99384.94;5023814;28;20049;-83
2021/11/29 05:39:51;;;;;;;9.68;4.28;;;3.20;99.90;;;1.06;100.00;99392.69;5008771;28;20119;-82
2021/11/29 05:42:18;;;;;;;7.47;4.35;;;3.20;99.90;;;1.06;100.00;99387.31;5028007;28;20128;-82
2021/11/29 05:44:49;;;;;;;9.75;4.30;;;3.20;99.90;;;1.10;100.00;99394.91;5009929;28;20425;-82
2021/11/29 05:47:17;;;;;;;7.88;4.35;;;3.30;99.90;;;1.08;100.00;99404.94;5026465;28;20053;-83
2021/11/29 05:49:46;;;;;;;8.32;4.20;;;3.30;99.90;;;1.14;100.00;99398.97;5028347;28;20129;-83
2021/11/29 05:52:13;;;;;;;11.57;4.57;;;3.30;99.90;;;1.16;100.00;99413.06;5027987;28;20120;-84
2021/11/29 05:54:40;;;;;;;13.15;4.55;;;3.30;99.90;;;1.12;100.00;99408.16;5026601;28;20153;-83
2021/11/29 05:57:09;;;;;;;9.20;4.47;;;3.30;99.90;;;1.07;100.00;99400.56;5015304;28;20046;-88
2021/11/29 05:59:36;;;;;;;7.93;4.70;;;3.30;99.90;;;1.04;100.00;99408.91;5007858;28;20049;-82
2021/11/29 06:02:04;;;;;;;10.88;4.57;;;3.40;99.90;;;1.06;100.00;99412.28;5008047;28;20088;-82
2021/11/29 06:04:31;;;;;;;10.40;4.43;;;3.30;99.90;;;1.06;100.00;99409.59;5007956;28;20072;-81
2021/11/29 06:07:00;;;;;;;9.60;4.10;;;3.40;99.90;;;1.08;100.00;99412.97;5008326;28;20120;-83
2021/11/29 06:09:27;;;;;;;7.50;4.28;;;3.40;99.90;;;1.11;100.00;99407.31;5006182;28;20124;-82
2021/11/29 06:11:55;;;;;;;8.95;4.35;;;3.40;99.90;;;1.09;100.00;99422.69;4994248;28;20060;-83
2021/11/29 06:14:25;;;;;;;8.35;3.90;;;3.30;99.90;;;1.11;100.00;99414.53;5012492;28;20058;-83
2021/11/29 06:16:52;;;;;;;11.77;4.20;;;3.30;99.90;;;1.13;100.00;99417.88;5016538;28;20045;-83
2021/11/29 06:19:20;;;;;;;7.68;3.70;;;3.40;99.90;;;1.19;100.00;99416.44;5025254;28;20579;-83
2021/11/29 06:21:47;;;;;;;8.55;3.65;;;3.40;99.90;;;1.24;100.00;99419.50;5016350;28;20133;-83
2021/11/29 06:24:28;;;;;;;8.50;4.25;;;3.40;99.90;;;1.21;100.00;99409.09;5075406;22;20108;-91
2021/11/29 06:27:09;;;;;;;9.15;4.15;;;3.50;99.90;;;1.18;100.00;99415.56;5053268;28;20044;-90
2021/11/29 06:29:41;;;;;;;10.77;3.72;;;3.50;99.90;;;1.18;100.00;99415.56;5065924;28;20040;-90
2021/11/29 06:32:15;;;;;;;9.00;3.83;;;3.40;99.90;;;1.09;100.00;99398.59;5054014;28;20072;-92
2021/11/29 06:34:45;;;;;;;6.97;3.53;;;3.40;99.90;;;1.19;100.00;99417.28;5057407;28;20486;-91
2021/11/29 06:38:03;;;;;;;5.60;3.47;;;3.40;99.90;;;1.22;100.00;99419.66;5050973;28;20496;-92
2021/11/29 06:41:06;;;;;;;7.10;3.40;;;3.40;99.90;;;1.30;100.00;99424.25;5068401;28;20107;-91
2021/11/29 08:53:08;;;;;;;9.00;5.40;;;4.00;99.90;;;1.91;100.00;99540.66;5022106;28;20061;-91
2021/11/29 08:55:36;;;;;;;14.80;5.95;;;4.00;99.90;;;1.95;100.00;99548.25;5024355;28;20426;-91
2021/11/29 08:58:05;;;;;;;10.40;5.80;;;4.00;99.90;;;1.94;100.00;99543.03;5021511;28;20045;-90
2021/11/29 09:00:37;;;;;;;12.38;6.28;;;4.10;99.90;;;1.99;100.00;99548.78;5024852;28;20037;-92
2021/11/29 09:03:11;;;;;;;14.88;6.28;;;4.10;99.90;;;1.91;100.00;99546.88;5017496;28;20041;-93
2021/11/29 09:05:42;;;;;;;15.52;5.75;;;4.10;99.90;;;1.91;100.00;99560.28;5022153;28;20507;-93
2021/11/29 09:08:15;;;;;;;;;;;4.10;99.90;;;1.81;100.00;99550.63;5035653;28;20100;-92
2021/11/29 09:10:45;;;;;;;12.68;5.82;;;4.10;99.90;;;1.83;100.00;99568.25;5022250;28;19925;-92
2021/11/29 09:13:12;;;;;;;11.57;6.05;;;4.00;99.90;;;1.73;100.00;99552.25;5027167;28;20065;-92
2021/11/29 09:15:41;;;;;;;11.55;5.90;;;4.00;99.90;;;1.73;100.00;99562.09;5045033;28;20080;-92
2021/11/29 09:18:16;;;;;;;9.80;6.00;;;4.00;99.90;;;1.75;100.00;99554.75;5027756;28;20140;-92
2021/11/29 09:21:36;;;;;;;14.05;6.60;;;4.00;99.90;;;1.69;100.00;99568.78;5042791;28;20136;-95
2021/11/29 10:02:13;;;;;;;17.08;10.27;;;4.10;99.90;;;2.10;100.00;99626.38;5050328;28;20053;-90
2021/11/29 10:04:42;;;;;;;22.58;11.55;;;4.20;99.90;;;2.08;100.00;99616.81;5033709;28;20052;-90
2021/11/29 10:07:10;;;;;;;19.67;11.30;;;4.20;99.90;;;2.14;100.00;99619.72;5030181;28;20592;-91
2021/11/29 10:09:40;;;;;;;26.40;12.40;;;4.20;99.90;;;2.24;100.00;99629.53;5031880;28;20044;-90
2021/11/29 10:12:29;;;;;;;27.02;14.45;;;4.20;99.90;;;2.25;100.00;99632.09;5044720;28;20033;-90
2021/11/29 10:15:23;;;;;;;26.15;14.52;;;4.30;99.90;;;2.29;100.00;99629.94;5043157;28;20517;-90
2021/11/29 10:18:10;;;;;;;25.83;15.13;;;4.40;99.90;;;2.29;100.00;99630.78;5037579;28;20075;-90
2021/11/29 10:20:54;;;;;;;37.72;16.90;;;4.40;99.90;;;2.35;100.00;99632.84;5052227;28;20052;-90
2021/11/29 10:23:35;;;;;;;29.42;16.63;;;4.40;99.90;;;2.38;100.00;99641.59;5020305;28;20051;-90
2021/11/29 10:26:05;;;;;;;28.95;17.30;;;4.40;99.90;;;2.42;100.00;99637.59;5031490;28;20056;-90
2021/11/29 10:28:35;;;;;;;35.43;19.20;;;4.50;99.90;;;2.43;100.00;99639.28;5038552;28;20041;-90
2021/11/29 10:31:16;;;;;;;35.70;19.85;;;4.50;99.90;;;2.47;100.00;99640.66;5025901;28;20299;-90
2021/11/29 10:33:57;;;;;;;37.00;20.58;;;4.60;99.90;;;2.50;100.00;99638.53;5049168;28;20040;-91
2021/11/29 10:36:49;;;;;;;42.05;21.95;;;4.60;99.90;;;2.58;100.00;99640.44;5045541;28;20037;-92
2021/11/29 10:39:35;;;;;;;;;;;;;;;;;;;;;
2021/11/29 10:42:08;;;;;;;43.63;22.65;;;4.60;99.90;;;2.65;100.00;99640.66;5048044;28;20041;-90
2021/11/29 10:44:39;;;;;;;50.33;24.50;;;4.60;99.90;;;2.67;100.00;99631.44;5043003;28;20045;-89
2021/11/29 10:47:11;;;;;;;43.35;23.75;;;4.70;99.90;;;2.79;100.00;99636.56;5036951;28;20117;-90
2021/11/29 10:49:44;;;;;;;42.08;23.05;;;4.70;99.90;;;2.83;100.00;99637.94;5010393;28;20042;-89
2021/11/29 10:52:16;;;;;;;41.83;24.27;;;4.80;99.90;;;2.84;100.00;99629.72;5026926;28;20048;-90
2021/11/29 10:54:44;;;;;;;48.78;25.27;;;4.80;99.90;;;2.90;100.00;99634.47;5029783;28;20045;-89
2021/11/29 10:57:14;;;;;;;45.95;24.00;;;4.90;99.90;;;2.95;100.00;99647.41;5022795;28;20457;-90
2021/11/29 10:59:44;;;;;;;46.80;25.00;;;4.90;99.90;;;3.00;100.00;99650.50;5041993;28;20038;-91
2021/11/29 11:02:22;;;;;;;41.10;24.20;;;4.90;99.90;;;3.02;100.00;99653.88;5031112;28;20132;-90
2021/11/29 11:05:04;;;;;;;44.15;24.15;;;5.00;99.90;;;3.05;100.00;99661.63;5045608;28;20120;-91
2021/11/29 11:07:35;;;;;;;47.58;24.15;;;5.00;99.90;;;3.09;100.00;99663.00;5013672;28;20065;-90
2021/11/29 11:10:17;;;;;;;;;;;5.00;99.90;;;3.07;100.00;99662.31;5030330;28;20046;-89
2021/11/29 11:12:48;;;;;;;40.80;22.27;;;5.00;99.90;;;3.16;100.00;99662.34;5050577;28;19915;-89
2021/11/29 11:15:19;;;;;;;38.45;21.65;;;5.10;99.90;;;3.20;100.00;99671.78;5043409;28;20456;-89
2021/11/29 11:17:53;;;;;;;38.47;20.63;;;5.10;99.90;;;3.29;100.00;99665.47;5048665;28;20090;-89
2021/11/29 11:20:23;;;;;;;29.73;17.45;;;5.20;99.90;;;3.35;100.00;99678.31;5041210;28;20071;-88
2021/11/29 11:22:52;;;;;;;33.60;17.83;;;5.20;99.90;;;3.35;100.00;99675.63;5042176;28;20032;-87
2021/11/29 11:25:24;;;;;;;24.75;15.90;;;5.20;99.90;;;3.40;100.00;99684.03;5042478;22;20144;-92
2021/11/29 11:27:58;;;;;;;30.52;14.23;;;5.20;99.90;;;3.42;100.00;99690.09;5011025;28;20046;-92
2021/11/29 11:30:28;;;;;;;23.27;13.23;;;5.30;99.90;;;3.43;100.00;99670.28;5017051;28;20529;-88
2021/11/29 11:33:20;;;;;;;18.75;10.18;;;5.30;99.90;;;3.38;100.00;99679.81;5022246;28;20460;-91
2021/11/29 11:35:53;;;;;;;16.50;9.45;;;5.30;99.90;;;3.38;100.00;99679.81;5012916;28;20052;-91
2021/11/29 11:38:26;;;;;;;23.98;9.55;;;5.40;99.90;;;3.45;100.00;99689.78;5027196;28;20123;-92
2021/11/29 11:40:59;;;;;;;12.43;7.30;;;5.40;99.90;;;3.42;100.00;99689.25;5004888;28;20483;-91
2021/11/29 11:43:44;;;;;;;13.63;6.55;;;5.40;99.90;;;3.46;100.00;99688.75;5011757;28;20038;-93
2021/11/29 11:46:36;;;;;;;11.82;5.93;;;5.40;99.90;;;3.48;100.00;99670.66;5003603;28;20070;-91
2021/11/29 11:49:04;;;;;;;11.68;6.20;;;5.40;99.90;;;3.55;100.00;99675.38;4987809;28;20062;-90
2021/11/29 11:51:38;;;;;;;14.05;6.13;;;5.50;99.90;;;3.58;100.00;99685.81;5006062;28;20042;-89
2021/11/29 11:58:18;;;;;;;10.38;4.97;;;5.50;99.90;;;3.73;100.00;99700.34;4884001;29;20196;-92
2021/11/29 12:00:54;;;;;;;8.20;5.63;;;5.50;99.90;;;3.79;100.00;99698.84;4894475;29;20135;-90
2021/11/29 12:03:29;;;;;;;10.73;5.55;;;5.50;99.90;;;3.85;100.00;99704.44;4990634;28;20066;-91
2021/11/29 12:06:02;;;;;;;9.20;5.38;;;5.50;99.90;;;3.77;100.00;99703.56;5008155;28;20682;-91
2021/11/29 12:08:38;;;;;;;10.45;5.18;;;5.50;99.90;;;3.83;100.00;99713.69;5007998;28;20073;-91
2021/11/29 12:11:40;;;;;;;8.77;4.90;;;5.50;99.90;;;3.82;100.00;99710.16;4999584;28;20046;-91
2021/11/29 12:14:17;;;;;;;8.13;4.70;;;5.60;99.90;;;3.88;100.00;99714.03;5000094;28;20110;-90
2021/11/29 12:16:48;;;;;;;9.75;4.38;;;5.60;99.90;;;3.93;100.00;99717.09;5000127;28;20124;-91
2021/11/29 12:19:43;;;;;;;11.75;5.28;;;5.50;99.90;;;3.96;100.00;99726.69;5002842;28;20125;-91
2021/11/29 12:22:33;;;;;;;8.38;4.88;;;5.60;99.90;;;3.96;100.00;99721.31;5018090;28;20088;-92
2021/11/29 12:25:22;;;;;;;10.85;5.00;;;5.70;99.90;;;4.01;100.00;99725.19;5030508;23;20107;-81
2021/11/29 12:27:52;;;;;;;9.63;5.22;;;5.70;99.90;;;3.95;100.00;99730.41;5066658;28;20045;-82
2021/11/29 12:30:36;;;;;;;9.88;5.32;;;5.70;99.90;;;3.97;100.00;99736.47;5064482;28;20043;-81
2021/11/29 12:33:06;;;;;;;11.80;4.68;;;5.80;99.90;;;3.94;100.00;99729.56;5065272;28;20095;-81
2021/11/29 12:35:38;;;;;;;10.27;5.03;;;5.80;99.90;;;3.85;100.00;99736.75;5026031;28;20094;-82
2021/11/29 12:38:09;;;;;;;7.53;4.30;;;5.80;99.90;;;3.87;100.00;99742.81;5047978;28;20075;-81
2021/11/29 12:40:50;;;;;;;;;;;5.80;99.90;;;3.97;100.00;99740.00;5020581;28;20053;-81
2021/11/29 12:43:37;;;;;;;10.45;5.10;;;5.90;99.90;;;4.11;100.00;99735.84;5032602;28;20340;-82
2021/11/29 12:46:26;;;;;;;7.90;4.50;;;5.80;99.90;;;4.12;100.00;99742.94;5048146;28;20582;-81
2021/11/29 12:48:56;;;;;;;9.95;5.20;;;5.90;99.90;;;4.17;100.00;99743.28;5046646;28;20041;-81
2021/11/29 12:51:56;;;;;;;12.35;5.00;;;5.90;99.90;;;4.14;100.00;99750.84;5042234;28;20090;-81
2021/11/29 12:54:41;;;;;;;9.00;4.53;;;5.90;99.90;;;4.06;100.00;99746.28;5042263;28;20567;-81
2021/11/29 12:57:33;;;;;;;7.60;4.43;;;6.00;99.90;;;4.05;100.00;99756.19;5046452;28;20052;-81
2021/11/29 13:00:07;;;;;;;7.55;4.60;;;6.00;99.90;;;4.03;100.00;99760.06;5045146;28;20617;-80
2021/11/29 13:02:45;;;;;;;9.43;5.00;;;5.90;99.90;;;3.99;100.00;99759.53;5046033;28;20064;-81
2021/11/29 13:05:34;;;;;;;8.85;4.70;;;6.00;99.90;;;3.96;100.00;99759.00;5046578;28;20049;-80
2021/11/29 13:08:05;;;;;;;10.43;4.60;;;5.90;99.90;;;3.90;100.00;99757.78;5046912;28;20068;-81
2021/11/29 13:11:02;;;;;;;;;;;5.90;99.90;;;3.90;100.00;99761.34;5043084;28;20132;-80
2021/11/29 13:13:57;;;;;;;7.45;4.00;;;5.90;99.90;;;3.88;100.00;99763.34;5018774;28;19928;-80
2021/11/29 13:16:48;;;;;;;9.23;3.90;;;6.00;99.90;;;3.91;100.00;99772.94;5044454;28;20134;-80
2021/11/29 13:19:18;;;;;;;;;;;6.00;99.90;;;3.91;100.00;99768.41;5044022;28;20061;-80
2021/11/29 13:21:59;;;;;;;9.27;3.55;;;6.00;99.90;;;3.94;100.00;99772.66;5040868;28;19928;-80
2021/11/29 13:24:36;;;;;;;8.10;3.53;;;6.00;99.90;;;3.97;100.00;99776.84;5039965;28;20527;-80
2021/11/29 13:27:09;;;;;;;7.60;3.53;;;6.00;99.90;;;4.01;100.00;99780.91;5046896;28;20049;-81
2021/11/29 13:29:42;;;;;;;9.50;3.75;;;6.00;99.90;;;4.06;100.00;99773.19;5045578;28;20045;-80
2021/11/29 13:32:14;;;;;;;8.65;3.80;;;6.00;99.90;;;4.12;100.00;99772.53;5035220;28;20086;-79
2021/11/29 13:34:44;;;;;;;7.35;3.95;;;6.00;99.90;;;4.12;100.00;99786.00;5045883;28;20074;-79